sensor_id;sensor_type;location;lat;lon;timestamp;pressure;altitude;pressure_sealevel;temperature;humidity
6128;BME280;7073;42.672;23.256;2023-03-19T00:01:37;94904.03;;;1.68;86.51
6128;BME280;7073;42.672;23.256;2023-03-19T00:04:18;94901.44;;;1.68;85.54
6128;BME280;7073;42.672;23.256;2023-03-19T00:10:12;94906.25;;;1.89;84.28
6128;BME280;7073;42.672;23.256;2023-03-19T00:12:39;94902.31;;;1.94;84.32
6128;BME280;7073;42.672;23.256;2023-03-19T00:15:08;94900.97;;;1.90;84.54
6128;BME280;7073;42.672;23.256;2023-03-19T00:17:38;94905.97;;;1.92;84.79
6128;BME280;7073;42.672;23.256;2023-03-19T00:20:07;94906.41;;;1.87;84.89
6128;BME280;7073;42.672;23.256;2023-03-19T00:22:34;94901.28;;;1.69;85.48
6128;BME280;7073;42.672;23.256;2023-03-19T00:25:01;94873.28;;;1.58;86.18
6128;BME280;7073;42.672;23.256;2023-03-19T00:33:53;94883.69;;;1.74;84.84
6128;BME280;7073;42.672;23.256;2023-03-19T00:36:23;94883.91;;;1.81;85.39
6128;BME280;7073;42.672;23.256;2023-03-19T00:39:05;94890.72;;;1.72;85.45
6128;BME280;7073;42.672;23.256;2023-03-19T00:41:33;94879.66;;;1.72;85.74
6128;BME280;7073;42.672;23.256;2023-03-19T00:43:59;94877.25;;;1.70;85.16
6128;BME280;7073;42.672;23.256;2023-03-19T00:46:27;94877.31;;;1.61;85.75
6128;BME280;7073;42.672;23.256;2023-03-19T00:49:04;94858.63;;;1.51;84.75
6128;BME280;7073;42.672;23.256;2023-03-19T00:51:49;94875.75;;;1.50;86.20
6128;BME280;7073;42.672;23.256;2023-03-19T00:54:16;94840.22;;;1.38;86.17
6128;BME280;7073;42.672;23.256;2023-03-19T00:56:43;94853.06;;;1.55;85.46
6128;BME280;7073;42.672;23.256;2023-03-19T00:59:10;94855.63;;;1.55;85.64
6128;BME280;7073;42.672;23.256;2023-03-19T01:01:36;94861.13;;;1.60;86.82
6128;BME280;7073;42.672;23.256;2023-03-19T01:04:06;94852.72;;;1.58;87.12
6128;BME280;7073;42.672;23.256;2023-03-19T01:06:33;94854.72;;;1.64;85.77
6128;BME280;7073;42.672;23.256;2023-03-19T01:09:00;94857.16;;;1.66;85.91
6128;BME280;7073;42.672;23.256;2023-03-19T01:11:27;94841.59;;;1.67;84.82
6128;BME280;7073;42.672;23.256;2023-03-19T01:14:22;94850.28;;;1.74;84.46
6128;BME280;7073;42.672;23.256;2023-03-19T01:17:06;94846.63;;;1.77;84.76
6128;BME280;7073;42.672;23.256;2023-03-19T01:22:25;94844.16;;;1.67;85.11
6128;BME280;7073;42.672;23.256;2023-03-19T01:24:53;94844.31;;;1.66;84.72
6128;BME280;7073;42.672;23.256;2023-03-19T01:27:20;94842.41;;;1.68;84.91
6128;BME280;7073;42.672;23.256;2023-03-19T01:29:47;94819.00;;;1.53;85.19
6128;BME280;7073;42.672;23.256;2023-03-19T01:32:14;94840.72;;;1.59;85.59
6128;BME280;7073;42.672;23.256;2023-03-19T01:34:42;94839.47;;;1.45;86.95
6128;BME280;7073;42.672;23.256;2023-03-19T01:37:09;94845.41;;;1.46;87.66
6128;BME280;7073;42.672;23.256;2023-03-19T01:39:37;94839.66;;;1.69;86.34
6128;BME280;7073;42.672;23.256;2023-03-19T01:42:04;94850.81;;;1.78;84.53
6128;BME280;7073;42.672;23.256;2023-03-19T01:44:33;94855.44;;;1.74;84.12
6128;BME280;7073;42.672;23.256;2023-03-19T01:47:02;94848.91;;;1.80;85.57
6128;BME280;7073;42.672;23.256;2023-03-19T01:49:30;94850.06;;;1.85;83.81
6128;BME280;7073;42.672;23.256;2023-03-19T01:52:16;94850.34;;;2.00;83.73
6128;BME280;7073;42.672;23.256;2023-03-19T01:54:45;94860.00;;;2.06;82.30
6128;BME280;7073;42.672;23.256;2023-03-19T01:57:13;94844.53;;;2.24;82.30
6128;BME280;7073;42.672;23.256;2023-03-19T01:59:42;94855.56;;;2.42;81.50
6128;BME280;7073;42.672;23.256;2023-03-19T02:02:14;94857.53;;;2.22;82.67
6128;BME280;7073;42.672;23.256;2023-03-19T02:05:12;94849.59;;;2.08;83.60
6128;BME280;7073;42.672;23.256;2023-03-19T02:07:43;94853.34;;;2.21;82.90
6128;BME280;7073;42.672;23.256;2023-03-19T02:10:13;94856.97;;;2.11;83.23
6128;BME280;7073;42.672;23.256;2023-03-19T02:12:41;94848.94;;;2.14;84.31
6128;BME280;7073;42.672;23.256;2023-03-19T02:15:22;94841.88;;;2.08;83.35
6128;BME280;7073;42.672;23.256;2023-03-19T02:17:49;94768.38;;;1.63;82.06
6128;BME280;7073;42.672;23.256;2023-03-19T02:20:20;94853.38;;;1.78;83.92
6128;BME280;7073;42.672;23.256;2023-03-19T02:22:59;94846.66;;;1.59;85.00
6128;BME280;7073;42.672;23.256;2023-03-19T02:25:34;94851.91;;;1.75;84.51
6128;BME280;7073;42.672;23.256;2023-03-19T02:28:06;94853.94;;;1.46;85.09
6128;BME280;7073;42.672;23.256;2023-03-19T02:30:34;94836.47;;;1.32;85.39
6128;BME280;7073;42.672;23.256;2023-03-19T02:33:01;94850.47;;;1.38;86.85
6128;BME280;7073;42.672;23.256;2023-03-19T02:35:30;94845.06;;;1.23;87.77
6128;BME280;7073;42.672;23.256;2023-03-19T02:38:00;94855.84;;;1.44;87.07
6128;BME280;7073;42.672;23.256;2023-03-19T02:40:33;94856.84;;;1.51;87.45
6128;BME280;7073;42.672;23.256;2023-03-19T02:43:02;94860.81;;;1.28;87.37
6128;BME280;7073;42.672;23.256;2023-03-19T02:45:41;94858.53;;;1.43;86.72
6128;BME280;7073;42.672;23.256;2023-03-19T02:48:08;94859.63;;;1.40;87.18
6128;BME280;7073;42.672;23.256;2023-03-19T02:50:34;94853.72;;;1.22;87.28
6128;BME280;7073;42.672;23.256;2023-03-19T02:53:09;94849.97;;;1.16;86.80
6128;BME280;7073;42.672;23.256;2023-03-19T02:55:36;94859.72;;;1.31;86.71
6128;BME280;7073;42.672;23.256;2023-03-19T02:58:03;94863.31;;;1.55;86.80
6128;BME280;7073;42.672;23.256;2023-03-19T03:00:30;94831.06;;;1.35;85.40
6128;BME280;7073;42.672;23.256;2023-03-19T03:03:12;94865.06;;;1.37;85.72
6128;BME280;7073;42.672;23.256;2023-03-19T03:05:39;94862.72;;;1.44;85.67
6128;BME280;7073;42.672;23.256;2023-03-19T03:08:07;94871.75;;;1.30;85.83
6128;BME280;7073;42.672;23.256;2023-03-19T03:10:35;94861.19;;;1.51;85.93
6128;BME280;7073;42.672;23.256;2023-03-19T03:13:02;94831.84;;;0.83;87.07
6128;BME280;7073;42.672;23.256;2023-03-19T03:15:31;94850.56;;;1.10;88.22
6128;BME280;7073;42.672;23.256;2023-03-19T03:18:16;94875.63;;;1.52;87.35
6128;BME280;7073;42.672;23.256;2023-03-19T03:20:48;94885.75;;;1.71;87.13
6128;BME280;7073;42.672;23.256;2023-03-19T03:23:15;94879.88;;;1.43;87.56
6128;BME280;7073;42.672;23.256;2023-03-19T03:25:42;94880.75;;;1.69;87.29
6128;BME280;7073;42.672;23.256;2023-03-19T03:28:37;94857.66;;;1.52;88.38
6128;BME280;7073;42.672;23.256;2023-03-19T03:31:14;94884.63;;;1.56;87.31
6128;BME280;7073;42.672;23.256;2023-03-19T03:34:05;94871.44;;;1.51;88.10
6128;BME280;7073;42.672;23.256;2023-03-19T03:36:36;94879.81;;;1.70;88.23
6128;BME280;7073;42.672;23.256;2023-03-19T03:39:20;94876.53;;;1.60;87.60
6128;BME280;7073;42.672;23.256;2023-03-19T03:41:47;94872.38;;;0.97;89.70
6128;BME280;7073;42.672;23.256;2023-03-19T03:44:15;94877.59;;;1.22;90.33
6128;BME280;7073;42.672;23.256;2023-03-19T03:46:45;94883.41;;;1.60;90.05
6128;BME280;7073;42.672;23.256;2023-03-19T03:49:17;94877.78;;;1.82;88.00
6128;BME280;7073;42.672;23.256;2023-03-19T03:51:46;94885.78;;;1.97;86.55
6128;BME280;7073;42.672;23.256;2023-03-19T03:54:14;94886.44;;;1.99;86.71
6128;BME280;7073;42.672;23.256;2023-03-19T03:56:40;94809.25;;;1.57;86.52
6128;BME280;7073;42.672;23.256;2023-03-19T03:59:10;94893.59;;;2.13;85.98
6128;BME280;7073;42.672;23.256;2023-03-19T04:01:38;94888.47;;;2.13;85.76
6128;BME280;7073;42.672;23.256;2023-03-19T04:04:09;94879.53;;;1.99;85.35
6128;BME280;7073;42.672;23.256;2023-03-19T04:06:48;94893.44;;;2.14;85.16
6128;BME280;7073;42.672;23.256;2023-03-19T04:09:45;94896.19;;;2.13;85.75
6128;BME280;7073;42.672;23.256;2023-03-19T04:12:14;94888.00;;;1.92;85.99
6128;BME280;7073;42.672;23.256;2023-03-19T04:14:41;94889.22;;;1.88;86.33
6128;BME280;7073;42.672;23.256;2023-03-19T04:17:09;94883.16;;;1.89;87.01
6128;BME280;7073;42.672;23.256;2023-03-19T04:19:36;94886.72;;;1.96;86.71
6128;BME280;7073;42.672;23.256;2023-03-19T04:22:28;94881.78;;;1.59;86.62
6128;BME280;7073;42.672;23.256;2023-03-19T04:24:55;94884.13;;;1.17;89.39
6128;BME280;7073;42.672;23.256;2023-03-19T04:27:21;94878.22;;;1.34;89.88
6128;BME280;7073;42.672;23.256;2023-03-19T04:29:48;94894.13;;;1.55;88.56
6128;BME280;7073;42.672;23.256;2023-03-19T04:35:08;94873.00;;;1.26;90.65
6128;BME280;7073;42.672;23.256;2023-03-19T04:37:51;94891.16;;;1.33;90.96
6128;BME280;7073;42.672;23.256;2023-03-19T04:40:55;94878.25;;;1.07;92.73
6128;BME280;7073;42.672;23.256;2023-03-19T04:47:08;94886.78;;;1.60;91.94
6128;BME280;7073;42.672;23.256;2023-03-19T04:49:35;94899.91;;;1.57;90.84
6128;BME280;7073;42.672;23.256;2023-03-19T04:52:02;94899.16;;;1.65;90.38
6128;BME280;7073;42.672;23.256;2023-03-19T04:54:31;94895.06;;;1.72;90.09
6128;BME280;7073;42.672;23.256;2023-03-19T04:56:58;94895.13;;;1.80;90.43
6128;BME280;7073;42.672;23.256;2023-03-19T04:59:25;94893.88;;;1.84;89.31
6128;BME280;7073;42.672;23.256;2023-03-19T05:01:57;94885.50;;;1.82;89.12
6128;BME280;7073;42.672;23.256;2023-03-19T05:12:32;94886.41;;;1.38;91.07
6128;BME280;7073;42.672;23.256;2023-03-19T05:18:11;94854.13;;;1.70;88.34
6128;BME280;7073;42.672;23.256;2023-03-19T05:24:06;94805.75;;;1.58;87.80
6128;BME280;7073;42.672;23.256;2023-03-19T05:26:33;94783.88;;;1.54;87.65
6128;BME280;7073;42.672;23.256;2023-03-19T05:29:01;94859.31;;;2.30;87.65
6128;BME280;7073;42.672;23.256;2023-03-19T05:31:29;94875.22;;;2.59;86.24
6128;BME280;7073;42.672;23.256;2023-03-19T05:33:56;94900.09;;;2.92;84.87
6128;BME280;7073;42.672;23.256;2023-03-19T05:36:23;94833.94;;;1.75;87.81
6128;BME280;7073;42.672;23.256;2023-03-19T05:38:50;94908.13;;;2.56;88.10
6128;BME280;7073;42.672;23.256;2023-03-19T05:41:16;94827.25;;;2.34;85.79
6128;BME280;7073;42.672;23.256;2023-03-19T05:43:43;94893.75;;;3.04;84.17
6128;BME280;7073;42.672;23.256;2023-03-19T05:46:12;94897.72;;;3.49;83.22
6128;BME280;7073;42.672;23.256;2023-03-19T05:48:39;94905.63;;;3.55;82.19
6128;BME280;7073;42.672;23.256;2023-03-19T05:51:06;94902.84;;;3.41;80.88
6128;BME280;7073;42.672;23.256;2023-03-19T05:53:34;94905.66;;;3.14;83.15
6128;BME280;7073;42.672;23.256;2023-03-19T05:56:00;94908.34;;;3.70;81.18
6128;BME280;7073;42.672;23.256;2023-03-19T05:58:28;94920.25;;;3.47;81.81
6128;BME280;7073;42.672;23.256;2023-03-19T06:00:55;94894.84;;;3.84;80.68
6128;BME280;7073;42.672;23.256;2023-03-19T06:03:24;94916.44;;;4.15;79.11
6128;BME280;7073;42.672;23.256;2023-03-19T06:05:51;94915.44;;;4.16;76.98
6128;BME280;7073;42.672;23.256;2023-03-19T06:08:18;94911.75;;;3.87;79.16
6128;BME280;7073;42.672;23.256;2023-03-19T06:10:46;94880.34;;;3.91;78.66
6128;BME280;7073;42.672;23.256;2023-03-19T06:13:12;94907.38;;;4.36;75.96
6128;BME280;7073;42.672;23.256;2023-03-19T06:15:39;94914.81;;;3.90;77.61
6128;BME280;7073;42.672;23.256;2023-03-19T06:18:06;94914.94;;;4.45;77.59
6128;BME280;7073;42.672;23.256;2023-03-19T06:20:34;94898.47;;;4.62;76.90
6128;BME280;7073;42.672;23.256;2023-03-19T06:23:01;94915.41;;;4.49;74.57
6128;BME280;7073;42.672;23.256;2023-03-19T06:25:28;94926.91;;;4.93;74.07
6128;BME280;7073;42.672;23.256;2023-03-19T06:27:55;94922.06;;;4.90;72.08
6128;BME280;7073;42.672;23.256;2023-03-19T06:30:22;94929.03;;;5.28;68.92
6128;BME280;7073;42.672;23.256;2023-03-19T06:32:48;94929.44;;;5.09;68.31
6128;BME280;7073;42.672;23.256;2023-03-19T06:35:16;94925.03;;;5.26;65.87
6128;BME280;7073;42.672;23.256;2023-03-19T06:37:45;94932.81;;;5.18;65.94
6128;BME280;7073;42.672;23.256;2023-03-19T06:40:13;94931.19;;;4.70;66.29
6128;BME280;7073;42.672;23.256;2023-03-19T06:42:43;94938.94;;;4.62;67.66
6128;BME280;7073;42.672;23.256;2023-03-19T06:45:11;94931.81;;;4.72;69.06
6128;BME280;7073;42.672;23.256;2023-03-19T06:47:40;94942.03;;;5.04;67.28
6128;BME280;7073;42.672;23.256;2023-03-19T06:50:08;94948.31;;;5.48;66.98
6128;BME280;7073;42.672;23.256;2023-03-19T06:52:35;94951.94;;;5.62;63.83
6128;BME280;7073;42.672;23.256;2023-03-19T06:55:04;94949.28;;;5.09;65.18
6128;BME280;7073;42.672;23.256;2023-03-19T06:57:31;94956.50;;;5.60;65.37
6128;BME280;7073;42.672;23.256;2023-03-19T06:59:58;94950.00;;;5.33;65.94
6128;BME280;7073;42.672;23.256;2023-03-19T07:02:25;94955.88;;;5.58;65.86
6128;BME280;7073;42.672;23.256;2023-03-19T07:04:52;94958.22;;;6.21;63.44
6128;BME280;7073;42.672;23.256;2023-03-19T07:07:19;94964.59;;;5.80;61.51
6128;BME280;7073;42.672;23.256;2023-03-19T07:09:45;94955.00;;;6.19;63.06
6128;BME280;7073;42.672;23.256;2023-03-19T07:12:14;94956.53;;;6.13;58.64
6128;BME280;7073;42.672;23.256;2023-03-19T07:14:41;94952.25;;;5.67;58.99
6128;BME280;7073;42.672;23.256;2023-03-19T07:17:07;94958.00;;;6.08;60.49
6128;BME280;7073;42.672;23.256;2023-03-19T07:19:34;94951.75;;;6.92;58.35
6128;BME280;7073;42.672;23.256;2023-03-19T07:22:01;94954.03;;;6.20;60.11
6128;BME280;7073;42.672;23.256;2023-03-19T07:24:28;94960.78;;;6.81;58.14
6128;BME280;7073;42.672;23.256;2023-03-19T07:26:55;94954.63;;;6.97;58.16
6128;BME280;7073;42.672;23.256;2023-03-19T07:29:24;94951.31;;;7.32;56.58
6128;BME280;7073;42.672;23.256;2023-03-19T07:31:51;94953.75;;;6.90;56.98
6128;BME280;7073;42.672;23.256;2023-03-19T07:34:18;94942.09;;;7.44;55.69
6128;BME280;7073;42.672;23.256;2023-03-19T07:36:44;94954.75;;;7.54;55.64
6128;BME280;7073;42.672;23.256;2023-03-19T07:39:11;94954.91;;;7.16;57.24
6128;BME280;7073;42.672;23.256;2023-03-19T07:41:38;94951.50;;;7.01;57.48
6128;BME280;7073;42.672;23.256;2023-03-19T07:44:05;94954.94;;;7.52;55.68
6128;BME280;7073;42.672;23.256;2023-03-19T07:46:33;94952.03;;;7.11;54.64
6128;BME280;7073;42.672;23.256;2023-03-19T07:49:00;94957.47;;;7.31;55.18
6128;BME280;7073;42.672;23.256;2023-03-19T07:51:27;94957.22;;;6.97;54.16
6128;BME280;7073;42.672;23.256;2023-03-19T07:53:54;94945.00;;;7.91;54.02
6128;BME280;7073;42.672;23.256;2023-03-19T07:56:20;94952.84;;;8.34;52.54
6128;BME280;7073;42.672;23.256;2023-03-19T07:58:47;94951.06;;;8.34;52.55
6128;BME280;7073;42.672;23.256;2023-03-19T08:01:14;94957.44;;;8.32;54.90
6128;BME280;7073;42.672;23.256;2023-03-19T08:03:42;94948.84;;;8.59;53.46
6128;BME280;7073;42.672;23.256;2023-03-19T08:06:09;94959.03;;;8.82;52.10
6128;BME280;7073;42.672;23.256;2023-03-19T08:08:36;94947.69;;;8.89;51.51
6128;BME280;7073;42.672;23.256;2023-03-19T08:11:03;94955.13;;;8.43;52.52
6128;BME280;7073;42.672;23.256;2023-03-19T08:13:31;94959.13;;;8.46;51.88
6128;BME280;7073;42.672;23.256;2023-03-19T08:15:58;94951.41;;;9.08;53.50
6128;BME280;7073;42.672;23.256;2023-03-19T08:18:24;94956.19;;;8.77;51.24
6128;BME280;7073;42.672;23.256;2023-03-19T08:20:53;94960.47;;;9.25;50.57
6128;BME280;7073;42.672;23.256;2023-03-19T08:23:20;94964.41;;;9.08;50.41
6128;BME280;7073;42.672;23.256;2023-03-19T08:25:47;94962.97;;;8.29;50.60
6128;BME280;7073;42.672;23.256;2023-03-19T08:28:16;94965.53;;;9.33;50.54
6128;BME280;7073;42.672;23.256;2023-03-19T08:30:42;94967.03;;;9.14;48.96
6128;BME280;7073;42.672;23.256;2023-03-19T08:33:09;94960.22;;;8.79;49.88
6128;BME280;7073;42.672;23.256;2023-03-19T08:35:36;94961.28;;;8.64;50.48
6128;BME280;7073;42.672;23.256;2023-03-19T08:38:04;94966.47;;;9.60;49.83
6128;BME280;7073;42.672;23.256;2023-03-19T08:40:31;94963.09;;;10.26;47.39
6128;BME280;7073;42.672;23.256;2023-03-19T08:42:58;94950.47;;;10.23;46.44
6128;BME280;7073;42.672;23.256;2023-03-19T08:45:25;94944.28;;;10.37;47.05
6128;BME280;7073;42.672;23.256;2023-03-19T08:47:53;94948.44;;;10.12;46.43
6128;BME280;7073;42.672;23.256;2023-03-19T08:50:22;94932.69;;;9.66;46.92
6128;BME280;7073;42.672;23.256;2023-03-19T08:52:49;94942.16;;;9.87;47.97
6128;BME280;7073;42.672;23.256;2023-03-19T08:55:17;94942.34;;;9.79;47.95
6128;BME280;7073;42.672;23.256;2023-03-19T08:57:44;94945.25;;;10.23;47.21
6128;BME280;7073;42.672;23.256;2023-03-19T09:00:11;94942.47;;;10.44;46.28
6128;BME280;7073;42.672;23.256;2023-03-19T09:02:39;94941.06;;;10.49;45.85
6128;BME280;7073;42.672;23.256;2023-03-19T09:05:06;94940.88;;;10.57;45.89
6128;BME280;7073;42.672;23.256;2023-03-19T09:07:33;94937.69;;;10.55;45.05
6128;BME280;7073;42.672;23.256;2023-03-19T09:10:00;94934.88;;;10.76;44.84
6128;BME280;7073;42.672;23.256;2023-03-19T09:12:28;94929.25;;;10.59;44.59
6128;BME280;7073;42.672;23.256;2023-03-19T09:14:55;94924.66;;;10.68;45.82
6128;BME280;7073;42.672;23.256;2023-03-19T09:17:22;94927.59;;;11.11;45.60
6128;BME280;7073;42.672;23.256;2023-03-19T09:19:48;94930.03;;;11.70;44.58
6128;BME280;7073;42.672;23.256;2023-03-19T09:22:15;94918.22;;;12.05;43.71
6128;BME280;7073;42.672;23.256;2023-03-19T09:24:42;94923.59;;;12.16;43.69
6128;BME280;7073;42.672;23.256;2023-03-19T09:27:09;94914.28;;;12.52;42.12
6128;BME280;7073;42.672;23.256;2023-03-19T09:29:37;94899.72;;;12.62;41.26
6128;BME280;7073;42.672;23.256;2023-03-19T09:32:04;94911.75;;;12.39;41.90
6128;BME280;7073;42.672;23.256;2023-03-19T09:34:31;94913.88;;;12.79;41.40
6128;BME280;7073;42.672;23.256;2023-03-19T09:36:58;94911.56;;;12.65;42.16
6128;BME280;7073;42.672;23.256;2023-03-19T09:39:25;94902.88;;;12.46;42.46
6128;BME280;7073;42.672;23.256;2023-03-19T09:42:01;94884.78;;;12.45;42.18
6128;BME280;7073;42.672;23.256;2023-03-19T09:44:34;94905.97;;;13.11;40.75
6128;BME280;7073;42.672;23.256;2023-03-19T09:47:19;94900.16;;;13.09;41.01
6128;BME280;7073;42.672;23.256;2023-03-19T09:49:52;94903.44;;;13.40;41.09
6128;BME280;7073;42.672;23.256;2023-03-19T09:52:26;94895.56;;;13.40;40.32
6128;BME280;7073;42.672;23.256;2023-03-19T09:55:00;94898.78;;;13.72;39.02
6128;BME280;7073;42.672;23.256;2023-03-19T09:57:31;94889.06;;;14.50;37.91
6128;BME280;7073;42.672;23.256;2023-03-19T09:59:59;94893.66;;;14.90;37.43
6128;BME280;7073;42.672;23.256;2023-03-19T10:02:38;94898.53;;;14.63;37.62
6128;BME280;7073;42.672;23.256;2023-03-19T10:05:16;94886.97;;;15.97;36.29
6128;BME280;7073;42.672;23.256;2023-03-19T10:10:48;94886.63;;;16.83;34.87
6128;BME280;7073;42.672;23.256;2023-03-19T10:13:24;94879.81;;;15.52;35.41
6128;BME280;7073;42.672;23.256;2023-03-19T10:15:52;94888.28;;;16.89;34.29
6128;BME280;7073;42.672;23.256;2023-03-19T10:18:25;94875.81;;;17.56;33.65
6128;BME280;7073;42.672;23.256;2023-03-19T10:20:56;94876.72;;;17.66;33.12
6128;BME280;7073;42.672;23.256;2023-03-19T10:23:33;94871.19;;;17.08;32.70
6128;BME280;7073;42.672;23.256;2023-03-19T10:26:08;94868.25;;;16.38;33.38
6128;BME280;7073;42.672;23.256;2023-03-19T10:28:36;94863.94;;;15.47;35.14
6128;BME280;7073;42.672;23.256;2023-03-19T10:31:13;94851.19;;;16.24;35.53
6128;BME280;7073;42.672;23.256;2023-03-19T10:33:51;94850.25;;;17.18;34.45
6128;BME280;7073;42.672;23.256;2023-03-19T10:36:25;94841.16;;;17.47;33.08
6128;BME280;7073;42.672;23.256;2023-03-19T10:38:52;94842.91;;;17.58;33.04
6128;BME280;7073;42.672;23.256;2023-03-19T10:41:28;94830.09;;;16.85;33.68
6128;BME280;7073;42.672;23.256;2023-03-19T10:44:01;94829.47;;;16.00;34.66
6128;BME280;7073;42.672;23.256;2023-03-19T10:46:36;94810.66;;;15.91;35.49
6128;BME280;7073;42.672;23.256;2023-03-19T10:49:04;94822.22;;;16.69;33.80
6128;BME280;7073;42.672;23.256;2023-03-19T10:51:36;94818.91;;;17.82;32.47
6128;BME280;7073;42.672;23.256;2023-03-19T10:54:17;94793.88;;;17.57;33.32
6128;BME280;7073;42.672;23.256;2023-03-19T10:56:45;94809.44;;;17.37;32.82
6128;BME280;7073;42.672;23.256;2023-03-19T10:59:20;94810.88;;;17.93;32.36
6128;BME280;7073;42.672;23.256;2023-03-19T11:01:48;94801.31;;;17.44;32.75
6128;BME280;7073;42.672;23.256;2023-03-19T11:04:19;94789.72;;;17.88;32.87
6128;BME280;7073;42.672;23.256;2023-03-19T11:06:48;94796.09;;;17.92;31.74
6128;BME280;7073;42.672;23.256;2023-03-19T11:09:19;94775.44;;;16.92;34.44
6128;BME280;7073;42.672;23.256;2023-03-19T11:11:49;94784.81;;;18.02;33.23
6128;BME280;7073;42.672;23.256;2023-03-19T11:14:20;94779.22;;;18.20;32.23
6128;BME280;7073;42.672;23.256;2023-03-19T11:16:54;94781.16;;;18.03;32.38
6128;BME280;7073;42.672;23.256;2023-03-19T11:19:25;94780.63;;;17.52;32.25
6128;BME280;7073;42.672;23.256;2023-03-19T11:22:07;94775.75;;;17.61;32.15
6128;BME280;7073;42.672;23.256;2023-03-19T11:24:36;94768.41;;;17.95;31.52
6128;BME280;7073;42.672;23.256;2023-03-19T11:27:04;94767.47;;;18.06;31.28
6128;BME280;7073;42.672;23.256;2023-03-19T11:29:34;94758.38;;;18.23;32.43
6128;BME280;7073;42.672;23.256;2023-03-19T11:32:11;94752.19;;;18.81;32.00
6128;BME280;7073;42.672;23.256;2023-03-19T11:34:48;94750.47;;;18.60;31.51
6128;BME280;7073;42.672;23.256;2023-03-19T11:37:22;94744.09;;;18.98;31.04
6128;BME280;7073;42.672;23.256;2023-03-19T11:39:58;94723.47;;;18.90;31.83
6128;BME280;7073;42.672;23.256;2023-03-19T11:42:42;94733.66;;;18.34;31.51
6128;BME280;7073;42.672;23.256;2023-03-19T11:45:22;94724.63;;;19.14;31.36
6128;BME280;7073;42.672;23.256;2023-03-19T11:48:00;94721.38;;;19.64;30.57
6128;BME280;7073;42.672;23.256;2023-03-19T11:50:38;94727.53;;;19.23;30.82
6128;BME280;7073;42.672;23.256;2023-03-19T11:53:18;94715.50;;;19.52;30.36
6128;BME280;7073;42.672;23.256;2023-03-19T11:55:56;94717.69;;;20.46;28.94
6128;BME280;7073;42.672;23.256;2023-03-19T11:58:54;94709.22;;;20.19;29.40
6128;BME280;7073;42.672;23.256;2023-03-19T12:01:37;94701.78;;;19.55;29.61
6128;BME280;7073;42.672;23.256;2023-03-19T12:04:42;94702.34;;;19.97;29.36
6128;BME280;7073;42.672;23.256;2023-03-19T12:07:23;94695.66;;;19.39;31.11
6128;BME280;7073;42.672;23.256;2023-03-19T12:10:04;94692.75;;;20.77;29.47
6128;BME280;7073;42.672;23.256;2023-03-19T12:12:37;94687.78;;;21.73;27.75
6128;BME280;7073;42.672;23.256;2023-03-19T12:15:14;94661.88;;;18.27;30.79
6128;BME280;7073;42.672;23.256;2023-03-19T12:17:57;94687.69;;;19.24;29.97
6128;BME280;7073;42.672;23.256;2023-03-19T12:20:36;94669.38;;;20.89;29.04
6128;BME280;7073;42.672;23.256;2023-03-19T12:23:30;94683.78;;;20.53;28.47
6128;BME280;7073;42.672;23.256;2023-03-19T12:26:01;94684.06;;;21.74;28.22
6128;BME280;7073;42.672;23.256;2023-03-19T12:28:34;94670.38;;;21.13;27.25
6128;BME280;7073;42.672;23.256;2023-03-19T12:31:21;94678.66;;;21.51;26.87
6128;BME280;7073;42.672;23.256;2023-03-19T12:33:58;94677.97;;;21.74;26.92
6128;BME280;7073;42.672;23.256;2023-03-19T12:36:29;94671.53;;;20.77;27.87
6128;BME280;7073;42.672;23.256;2023-03-19T12:39:01;94667.97;;;19.72;28.29
6128;BME280;7073;42.672;23.256;2023-03-19T12:41:31;94672.19;;;20.29;28.77
6128;BME280;7073;42.672;23.256;2023-03-19T12:44:02;94668.84;;;21.51;27.72
6128;BME280;7073;42.672;23.256;2023-03-19T12:46:33;94649.88;;;21.68;27.78
6128;BME280;7073;42.672;23.256;2023-03-19T12:49:05;94662.28;;;21.39;28.14
6128;BME280;7073;42.672;23.256;2023-03-19T12:51:35;94652.47;;;21.39;27.00
6128;BME280;7073;42.672;23.256;2023-03-19T12:54:10;94653.59;;;21.28;28.04
6128;BME280;7073;42.672;23.256;2023-03-19T12:56:42;94647.81;;;21.99;27.39
6128;BME280;7073;42.672;23.256;2023-03-19T12:59:16;94660.09;;;21.89;26.88
6128;BME280;7073;42.672;23.256;2023-03-19T13:01:50;94654.94;;;21.20;27.29
6128;BME280;7073;42.672;23.256;2023-03-19T13:04:21;94658.09;;;21.27;27.52
6128;BME280;7073;42.672;23.256;2023-03-19T13:06:53;94640.84;;;21.35;27.78
6128;BME280;7073;42.672;23.256;2023-03-19T13:09:27;94649.72;;;21.54;27.88
6128;BME280;7073;42.672;23.256;2023-03-19T13:11:59;94636.50;;;21.88;27.56
6128;BME280;7073;42.672;23.256;2023-03-19T13:14:33;94646.22;;;21.64;27.17
6128;BME280;7073;42.672;23.256;2023-03-19T13:17:07;94626.72;;;21.45;27.47
6128;BME280;7073;42.672;23.256;2023-03-19T13:19:43;94643.84;;;21.62;26.91
6128;BME280;7073;42.672;23.256;2023-03-19T13:22:13;94627.50;;;22.13;26.79
6128;BME280;7073;42.672;23.256;2023-03-19T13:24:44;94632.59;;;23.09;25.98
6128;BME280;7073;42.672;23.256;2023-03-19T13:27:16;94617.03;;;23.91;25.06
6128;BME280;7073;42.672;23.256;2023-03-19T13:30:03;94615.53;;;21.09;26.79
6128;BME280;7073;42.672;23.256;2023-03-19T13:32:37;94611.41;;;22.57;26.19
6128;BME280;7073;42.672;23.256;2023-03-19T13:35:17;94621.06;;;22.95;25.24
6128;BME280;7073;42.672;23.256;2023-03-19T13:37:46;94606.50;;;22.69;26.04
6128;BME280;7073;42.672;23.256;2023-03-19T13:40:46;94609.31;;;22.30;26.28
6128;BME280;7073;42.672;23.256;2023-03-19T13:43:41;94608.22;;;22.07;26.48
6128;BME280;7073;42.672;23.256;2023-03-19T13:46:37;94612.59;;;21.54;27.47
6128;BME280;7073;42.672;23.256;2023-03-19T13:51:53;94596.44;;;21.51;27.13
6128;BME280;7073;42.672;23.256;2023-03-19T13:54:32;94602.22;;;21.58;27.21
6128;BME280;7073;42.672;23.256;2023-03-19T13:57:32;94600.91;;;22.46;26.19
6128;BME280;7073;42.672;23.256;2023-03-19T14:03:00;94580.41;;;22.47;26.83
6128;BME280;7073;42.672;23.256;2023-03-19T14:05:32;94597.03;;;22.81;26.16
6128;BME280;7073;42.672;23.256;2023-03-19T14:08:00;94573.44;;;22.32;27.29
6128;BME280;7073;42.672;23.256;2023-03-19T14:10:28;94580.50;;;21.17;27.92
6128;BME280;7073;42.672;23.256;2023-03-19T14:13:05;94577.88;;;21.51;26.93
6128;BME280;7073;42.672;23.256;2023-03-19T14:15:33;94577.31;;;21.20;28.40
6128;BME280;7073;42.672;23.256;2023-03-19T14:18:02;94564.41;;;21.76;27.64
6128;BME280;7073;42.672;23.256;2023-03-19T14:20:32;94583.66;;;23.47;26.07
6128;BME280;7073;42.672;23.256;2023-03-19T14:23:19;94566.72;;;23.43;25.25